sensor_id;sensor_type;location;lat;lon;timestamp;P1;durP1;ratioP1;P2;durP2;ratioP2
69369;SDS011;56530;42.640;23.372;2024-03-08T00:01:42;14.00;;;12.75;;
69369;SDS011;56530;42.640;23.372;2024-03-08T00:04:19;12.03;;;10.83;;
69369;SDS011;56530;42.640;23.372;2024-03-08T00:06:44;12.90;;;11.80;;
69369;SDS011;56530;42.640;23.372;2024-03-08T00:09:11;12.27;;;11.07;;
69369;SDS011;56530;42.640;23.372;2024-03-08T00:11:37;13.43;;;11.95;;
69369;SDS011;56530;42.640;23.372;2024-03-08T00:14:05;12.93;;;11.60;;
69369;SDS011;56530;42.640;23.372;2024-03-08T00:19:28;13.17;;;11.83;;
69369;SDS011;56530;42.640;23.372;2024-03-08T00:21:53;12.53;;;11.30;;
69369;SDS011;56530;42.640;23.372;2024-03-08T00:24:20;12.13;;;10.93;;
69369;SDS011;56530;42.640;23.372;2024-03-08T00:26:54;12.87;;;11.63;;
69369;SDS011;56530;42.640;23.372;2024-03-08T00:29:47;12.30;;;11.20;;
69369;SDS011;56530;42.640;23.372;2024-03-08T00:32:12;14.17;;;12.10;;
69369;SDS011;56530;42.640;23.372;2024-03-08T00:34:40;13.73;;;12.45;;
69369;SDS011;56530;42.640;23.372;2024-03-08T00:37:05;14.90;;;13.40;;
69369;SDS011;56530;42.640;23.372;2024-03-08T00:39:30;15.17;;;13.63;;
69369;SDS011;56530;42.640;23.372;2024-03-08T00:41:56;15.60;;;14.10;;
69369;SDS011;56530;42.640;23.372;2024-03-08T00:44:24;15.33;;;13.80;;
69369;SDS011;56530;42.640;23.372;2024-03-08T00:46:49;15.53;;;13.93;;
69369;SDS011;56530;42.640;23.372;2024-03-08T00:49:15;17.03;;;15.33;;
69369;SDS011;56530;42.640;23.372;2024-03-08T00:51:40;18.17;;;16.33;;
69369;SDS011;56530;42.640;23.372;2024-03-08T00:54:07;17.53;;;15.77;;
69369;SDS011;56530;42.640;23.372;2024-03-08T00:56:32;17.13;;;15.43;;
69369;SDS011;56530;42.640;23.372;2024-03-08T00:59:03;17.57;;;15.87;;
69369;SDS011;56530;42.640;23.372;2024-03-08T01:01:31;18.70;;;16.80;;
69369;SDS011;56530;42.640;23.372;2024-03-08T01:03:56;15.63;;;14.10;;
69369;SDS011;56530;42.640;23.372;2024-03-08T01:06:35;14.70;;;13.17;;
69369;SDS011;56530;42.640;23.372;2024-03-08T01:09:00;13.70;;;12.40;;
69369;SDS011;56530;42.640;23.372;2024-03-08T01:11:28;12.67;;;10.80;;
69369;SDS011;56530;42.640;23.372;2024-03-08T01:14:09;11.03;;;9.97;;
69369;SDS011;56530;42.640;23.372;2024-03-08T01:16:37;11.73;;;10.63;;
69369;SDS011;56530;42.640;23.372;2024-03-08T01:19:05;10.50;;;9.47;;
69369;SDS011;56530;42.640;23.372;2024-03-08T01:21:33;11.13;;;10.07;;
69369;SDS011;56530;42.640;23.372;2024-03-08T01:23:59;10.90;;;9.90;;
69369;SDS011;56530;42.640;23.372;2024-03-08T01:26:24;9.33;;;8.53;;
69369;SDS011;56530;42.640;23.372;2024-03-08T01:29:12;9.85;;;9.05;;
69369;SDS011;56530;42.640;23.372;2024-03-08T01:31:40;9.23;;;8.43;;
69369;SDS011;56530;42.640;23.372;2024-03-08T01:34:17;8.43;;;6.80;;
69369;SDS011;56530;42.640;23.372;2024-03-08T01:39:31;4.87;;;4.47;;
69369;SDS011;56530;42.640;23.372;2024-03-08T01:42:00;4.97;;;4.57;;
69369;SDS011;56530;42.640;23.372;2024-03-08T01:44:43;4.60;;;4.20;;
69369;SDS011;56530;42.640;23.372;2024-03-08T01:47:09;5.00;;;4.60;;
69369;SDS011;56530;42.640;23.372;2024-03-08T01:49:42;3.88;;;3.58;;
69369;SDS011;56530;42.640;23.372;2024-03-08T01:52:09;4.07;;;3.77;;
69369;SDS011;56530;42.640;23.372;2024-03-08T01:54:37;4.20;;;3.90;;
69369;SDS011;56530;42.640;23.372;2024-03-08T01:57:14;4.47;;;4.07;;
69369;SDS011;56530;42.640;23.372;2024-03-08T02:00:16;4.30;;;4.00;;
69369;SDS011;56530;42.640;23.372;2024-03-08T02:02:42;3.40;;;3.20;;
69369;SDS011;56530;42.640;23.372;2024-03-08T02:05:12;2.93;;;2.73;;
69369;SDS011;56530;42.640;23.372;2024-03-08T02:07:41;3.30;;;3.10;;
69369;SDS011;56530;42.640;23.372;2024-03-08T02:10:10;3.03;;;2.83;;
69369;SDS011;56530;42.640;23.372;2024-03-08T02:12:37;3.60;;;3.30;;
69369;SDS011;56530;42.640;23.372;2024-03-08T02:18:20;3.50;;;3.30;;
69369;SDS011;56530;42.640;23.372;2024-03-08T02:20:58;3.10;;;2.90;;
69369;SDS011;56530;42.640;23.372;2024-03-08T02:23:27;3.20;;;3.00;;
69369;SDS011;56530;42.640;23.372;2024-03-08T02:25:56;3.40;;;3.10;;
69369;SDS011;56530;42.640;23.372;2024-03-08T02:28:22;3.53;;;3.33;;
69369;SDS011;56530;42.640;23.372;2024-03-08T02:30:51;3.67;;;3.03;;
69369;SDS011;56530;42.640;23.372;2024-03-08T02:33:21;3.13;;;2.93;;
69369;SDS011;56530;42.640;23.372;2024-03-08T02:35:47;3.10;;;2.90;;
69369;SDS011;56530;42.640;23.372;2024-03-08T02:38:29;3.57;;;3.37;;
69369;SDS011;56530;42.640;23.372;2024-03-08T02:40:54;3.27;;;2.97;;
69369;SDS011;56530;42.640;23.372;2024-03-08T02:43:20;3.45;;;3.25;;
69369;SDS011;56530;42.640;23.372;2024-03-08T02:45:49;5.20;;;3.57;;
69369;SDS011;56530;42.640;23.372;2024-03-08T02:48:17;3.23;;;3.03;;
69369;SDS011;56530;42.640;23.372;2024-03-08T02:50:43;3.40;;;3.20;;
69369;SDS011;56530;42.640;23.372;2024-03-08T02:53:10;3.25;;;3.03;;
69369;SDS011;56530;42.640;23.372;2024-03-08T02:55:36;3.20;;;2.90;;
69369;SDS011;56530;42.640;23.372;2024-03-08T02:58:06;3.38;;;2.85;;
69369;SDS011;56530;42.640;23.372;2024-03-08T03:00:36;2.70;;;2.50;;
69369;SDS011;56530;42.640;23.372;2024-03-08T03:03:02;3.20;;;3.00;;
69369;SDS011;56530;42.640;23.372;2024-03-08T03:05:28;2.80;;;2.60;;
69369;SDS011;56530;42.640;23.372;2024-03-08T03:07:56;2.95;;;2.75;;
69369;SDS011;56530;42.640;23.372;2024-03-08T03:10:23;2.97;;;2.78;;
69369;SDS011;56530;42.640;23.372;2024-03-08T03:12:49;2.75;;;2.55;;
69369;SDS011;56530;42.640;23.372;2024-03-08T03:15:14;2.97;;;2.67;;
69369;SDS011;56530;42.640;23.372;2024-03-08T03:17:45;2.80;;;2.60;;
69369;SDS011;56530;42.640;23.372;2024-03-08T03:20:11;3.10;;;2.90;;
69369;SDS011;56530;42.640;23.372;2024-03-08T03:22:40;2.50;;;2.40;;
69369;SDS011;56530;42.640;23.372;2024-03-08T03:25:06;2.70;;;2.50;;
69369;SDS011;56530;42.640;23.372;2024-03-08T03:27:32;3.28;;;3.00;;
69369;SDS011;56530;42.640;23.372;2024-03-08T03:30:01;2.83;;;2.63;;
69369;SDS011;56530;42.640;23.372;2024-03-08T03:32:49;2.60;;;2.47;;
69369;SDS011;56530;42.640;23.372;2024-03-08T03:35:16;2.67;;;2.47;;
69369;SDS011;56530;42.640;23.372;2024-03-08T03:37:42;2.60;;;2.40;;
69369;SDS011;56530;42.640;23.372;2024-03-08T03:40:22;2.08;;;1.98;;
69369;SDS011;56530;42.640;23.372;2024-03-08T03:42:50;2.00;;;1.90;;
69369;SDS011;56530;42.640;23.372;2024-03-08T03:45:16;3.17;;;2.10;;
69369;SDS011;56530;42.640;23.372;2024-03-08T03:47:48;2.03;;;1.70;;
69369;SDS011;56530;42.640;23.372;2024-03-08T03:50:13;2.00;;;1.90;;
69369;SDS011;56530;42.640;23.372;2024-03-08T03:52:42;1.80;;;1.70;;
69369;SDS011;56530;42.640;23.372;2024-03-08T03:55:08;1.95;;;1.85;;
69369;SDS011;56530;42.640;23.372;2024-03-08T03:57:36;1.90;;;1.80;;
69369;SDS011;56530;42.640;23.372;2024-03-08T04:00:03;1.50;;;1.43;;
69369;SDS011;56530;42.640;23.372;2024-03-08T04:02:29;1.63;;;1.53;;
69369;SDS011;56530;42.640;23.372;2024-03-08T04:04:55;1.33;;;1.25;;
69369;SDS011;56530;42.640;23.372;2024-03-08T04:07:20;1.60;;;1.50;;
69369;SDS011;56530;42.640;23.372;2024-03-08T04:09:46;1.88;;;1.77;;
69369;SDS011;56530;42.640;23.372;2024-03-08T04:12:12;1.77;;;1.67;;
69369;SDS011;56530;42.640;23.372;2024-03-08T04:18:15;1.70;;;1.60;;
69369;SDS011;56530;42.640;23.372;2024-03-08T04:21:36;2.22;;;1.73;;
69369;SDS011;56530;42.640;23.372;2024-03-08T04:23:42;2.20;;;2.10;;
69369;SDS011;56530;42.640;23.372;2024-03-08T04:26:28;2.28;;;2.17;;
69369;SDS011;56530;42.640;23.372;2024-03-08T04:29:02;3.67;;;3.37;;
69369;SDS011;56530;42.640;23.372;2024-03-08T04:31:37;3.17;;;2.63;;
69369;SDS011;56530;42.640;23.372;2024-03-08T04:34:30;2.95;;;2.75;;
69369;SDS011;56530;42.640;23.372;2024-03-08T04:37:06;4.07;;;2.20;;
69369;SDS011;56530;42.640;23.372;2024-03-08T04:39:38;3.37;;;3.07;;
69369;SDS011;56530;42.640;23.372;2024-03-08T04:45:49;2.60;;;2.40;;
69369;SDS011;56530;42.640;23.372;2024-03-08T04:57:03;2.57;;;2.37;;
69369;SDS011;56530;42.640;23.372;2024-03-08T05:03:10;5.80;;;5.03;;
69369;SDS011;56530;42.640;23.372;2024-03-08T06:03:34;7.63;;;6.93;;
69369;SDS011;56530;42.640;23.372;2024-03-08T06:06:13;7.83;;;7.03;;
69369;SDS011;56530;42.640;23.372;2024-03-08T06:09:35;8.10;;;7.30;;
69369;SDS011;56530;42.640;23.372;2024-03-08T06:12:13;7.17;;;6.57;;
69369;SDS011;56530;42.640;23.372;2024-03-08T06:19:06;7.33;;;6.63;;
69369;SDS011;56530;42.640;23.372;2024-03-08T06:22:05;9.10;;;8.20;;
69369;SDS011;56530;42.640;23.372;2024-03-08T06:27:06;7.83;;;7.10;;
69369;SDS011;56530;42.640;23.372;2024-03-08T06:29:40;7.77;;;7.00;;
69369;SDS011;56530;42.640;23.372;2024-03-08T06:32:27;8.88;;;8.07;;
69369;SDS011;56530;42.640;23.372;2024-03-08T06:35:26;8.18;;;7.38;;
69369;SDS011;56530;42.640;23.372;2024-03-08T06:38:06;7.43;;;6.67;;
69369;SDS011;56530;42.640;23.372;2024-03-08T06:40:35;8.57;;;7.78;;
69369;SDS011;56530;42.640;23.372;2024-03-08T06:43:00;10.80;;;7.63;;
69369;SDS011;56530;42.640;23.372;2024-03-08T06:45:26;9.80;;;7.60;;
69369;SDS011;56530;42.640;23.372;2024-03-08T06:47:51;8.05;;;7.25;;
69369;SDS011;56530;42.640;23.372;2024-03-08T06:50:17;7.63;;;6.93;;
69369;SDS011;56530;42.640;23.372;2024-03-08T06:52:42;8.53;;;7.73;;
69369;SDS011;56530;42.640;23.372;2024-03-08T06:55:09;7.57;;;6.33;;
69369;SDS011;56530;42.640;23.372;2024-03-08T06:57:41;7.30;;;6.63;;
69369;SDS011;56530;42.640;23.372;2024-03-08T07:00:07;6.70;;;6.10;;
69369;SDS011;56530;42.640;23.372;2024-03-08T07:02:40;6.68;;;6.07;;
69369;SDS011;56530;42.640;23.372;2024-03-08T07:05:07;7.05;;;6.40;;
69369;SDS011;56530;42.640;23.372;2024-03-08T07:07:35;7.82;;;6.43;;
69369;SDS011;56530;42.640;23.372;2024-03-08T07:10:01;8.45;;;6.47;;
69369;SDS011;56530;42.640;23.372;2024-03-08T07:12:26;6.70;;;6.00;;
69369;SDS011;56530;42.640;23.372;2024-03-08T07:14:52;8.07;;;7.30;;
69369;SDS011;56530;42.640;23.372;2024-03-08T07:17:18;7.68;;;6.10;;
69369;SDS011;56530;42.640;23.372;2024-03-08T07:19:43;7.50;;;6.80;;
69369;SDS011;56530;42.640;23.372;2024-03-08T07:22:09;7.17;;;6.43;;
69369;SDS011;56530;42.640;23.372;2024-03-08T07:24:35;7.50;;;6.80;;
69369;SDS011;56530;42.640;23.372;2024-03-08T07:27:26;7.20;;;6.57;;
69369;SDS011;56530;42.640;23.372;2024-03-08T07:29:52;7.80;;;6.83;;
69369;SDS011;56530;42.640;23.372;2024-03-08T07:32:17;8.60;;;6.60;;
69369;SDS011;56530;42.640;23.372;2024-03-08T07:34:47;5.85;;;5.13;;
69369;SDS011;56530;42.640;23.372;2024-03-08T07:37:15;5.83;;;5.30;;
69369;SDS011;56530;42.640;23.372;2024-03-08T07:39:51;5.57;;;5.07;;
69369;SDS011;56530;42.640;23.372;2024-03-08T07:42:18;9.60;;;5.32;;
69369;SDS011;56530;42.640;23.372;2024-03-08T07:44:43;5.90;;;4.93;;
69369;SDS011;56530;42.640;23.372;2024-03-08T07:47:13;4.60;;;4.20;;
69369;SDS011;56530;42.640;23.372;2024-03-08T07:49:39;4.53;;;4.13;;
69369;SDS011;56530;42.640;23.372;2024-03-08T07:52:04;4.37;;;3.67;;
69369;SDS011;56530;42.640;23.372;2024-03-08T07:54:32;5.15;;;4.00;;
69369;SDS011;56530;42.640;23.372;2024-03-08T07:57:00;6.63;;;3.92;;
69369;SDS011;56530;42.640;23.372;2024-03-08T07:59:27;8.77;;;4.32;;
69369;SDS011;56530;42.640;23.372;2024-03-08T08:01:53;4.85;;;4.20;;
69369;SDS011;56530;42.640;23.372;2024-03-08T08:04:19;4.73;;;4.23;;
69369;SDS011;56530;42.640;23.372;2024-03-08T08:06:49;4.90;;;4.50;;
69369;SDS011;56530;42.640;23.372;2024-03-08T08:09:16;4.53;;;4.13;;
69369;SDS011;56530;42.640;23.372;2024-03-08T08:11:54;5.20;;;4.68;;
69369;SDS011;56530;42.640;23.372;2024-03-08T08:14:20;5.35;;;4.85;;
69369;SDS011;56530;42.640;23.372;2024-03-08T08:16:51;5.45;;;4.95;;
69369;SDS011;56530;42.640;23.372;2024-03-08T08:19:18;5.95;;;5.05;;
69369;SDS011;56530;42.640;23.372;2024-03-08T08:21:44;8.20;;;5.65;;
69369;SDS011;56530;42.640;23.372;2024-03-08T08:24:09;7.17;;;5.47;;
69369;SDS011;56530;42.640;23.372;2024-03-08T08:26:36;7.38;;;5.57;;
69369;SDS011;56530;42.640;23.372;2024-03-08T08:29:01;7.07;;;5.30;;
69369;SDS011;56530;42.640;23.372;2024-03-08T08:31:27;7.88;;;5.65;;
69369;SDS011;56530;42.640;23.372;2024-03-08T08:33:52;7.70;;;6.33;;
69369;SDS011;56530;42.640;23.372;2024-03-08T08:36:26;5.68;;;5.18;;
69369;SDS011;56530;42.640;23.372;2024-03-08T08:38:54;5.85;;;5.30;;
69369;SDS011;56530;42.640;23.372;2024-03-08T08:41:21;8.10;;;6.22;;
69369;SDS011;56530;42.640;23.372;2024-03-08T08:43:47;7.90;;;5.53;;
69369;SDS011;56530;42.640;23.372;2024-03-08T08:46:17;7.00;;;5.68;;
69369;SDS011;56530;42.640;23.372;2024-03-08T08:48:43;5.40;;;4.90;;
69369;SDS011;56530;42.640;23.372;2024-03-08T08:51:10;5.78;;;4.45;;
69369;SDS011;56530;42.640;23.372;2024-03-08T08:53:42;10.52;;;4.63;;
69369;SDS011;56530;42.640;23.372;2024-03-08T08:56:11;6.32;;;4.95;;
69369;SDS011;56530;42.640;23.372;2024-03-08T08:58:40;5.03;;;4.60;;
69369;SDS011;56530;42.640;23.372;2024-03-08T09:01:09;5.03;;;4.53;;
69369;SDS011;56530;42.640;23.372;2024-03-08T09:03:35;6.47;;;4.78;;
69369;SDS011;56530;42.640;23.372;2024-03-08T09:06:02;5.50;;;5.00;;
69369;SDS011;56530;42.640;23.372;2024-03-08T09:08:30;4.93;;;4.53;;
69369;SDS011;56530;42.640;23.372;2024-03-08T09:11:00;6.40;;;4.30;;
69369;SDS011;56530;42.640;23.372;2024-03-08T09:13:35;5.00;;;4.50;;
69369;SDS011;56530;42.640;23.372;2024-03-08T09:16:23;5.72;;;4.40;;
69369;SDS011;56530;42.640;23.372;2024-03-08T09:19:11;6.88;;;4.95;;
69369;SDS011;56530;42.640;23.372;2024-03-08T09:22:04;7.18;;;4.18;;
69369;SDS011;56530;42.640;23.372;2024-03-08T09:24:31;4.43;;;4.03;;
69369;SDS011;56530;42.640;23.372;2024-03-08T09:26:57;5.28;;;4.00;;
69369;SDS011;56530;42.640;23.372;2024-03-08T09:29:25;5.65;;;4.10;;
69369;SDS011;56530;42.640;23.372;2024-03-08T09:31:50;4.10;;;3.70;;
69369;SDS011;56530;42.640;23.372;2024-03-08T09:34:16;4.15;;;3.70;;
69369;SDS011;56530;42.640;23.372;2024-03-08T09:36:43;3.85;;;3.50;;
69369;SDS011;56530;42.640;23.372;2024-03-08T09:39:09;6.55;;;3.05;;
69369;SDS011;56530;42.640;23.372;2024-03-08T09:41:34;5.18;;;3.00;;
69369;SDS011;56530;42.640;23.372;2024-03-08T09:44:00;4.30;;;2.80;;
69369;SDS011;56530;42.640;23.372;2024-03-08T09:46:26;3.47;;;3.05;;
69369;SDS011;56530;42.640;23.372;2024-03-08T09:48:55;4.47;;;4.00;;
69369;SDS011;56530;42.640;23.372;2024-03-08T09:51:21;3.35;;;3.15;;
69369;SDS011;56530;42.640;23.372;2024-03-08T09:53:52;3.03;;;2.80;;
69369;SDS011;56530;42.640;23.372;2024-03-08T09:56:18;3.53;;;3.22;;
69369;SDS011;56530;42.640;23.372;2024-03-08T09:58:45;3.38;;;3.08;;
69369;SDS011;56530;42.640;23.372;2024-03-08T10:01:42;5.50;;;3.65;;
69369;SDS011;56530;42.640;23.372;2024-03-08T10:04:09;4.78;;;3.15;;
69369;SDS011;56530;42.640;23.372;2024-03-08T10:06:35;4.38;;;3.15;;
69369;SDS011;56530;42.640;23.372;2024-03-08T10:09:01;2.88;;;2.58;;
69369;SDS011;56530;42.640;23.372;2024-03-08T10:11:32;3.08;;;2.78;;
69369;SDS011;56530;42.640;23.372;2024-03-08T10:13:58;3.50;;;2.83;;
69369;SDS011;56530;42.640;23.372;2024-03-08T10:16:25;7.13;;;3.17;;
69369;SDS011;56530;42.640;23.372;2024-03-08T10:18:52;4.95;;;3.42;;
69369;SDS011;56530;42.640;23.372;2024-03-08T10:21:18;5.15;;;2.83;;
69369;SDS011;56530;42.640;23.372;2024-03-08T10:23:44;2.88;;;2.58;;
69369;SDS011;56530;42.640;23.372;2024-03-08T10:26:10;2.88;;;2.58;;
69369;SDS011;56530;42.640;23.372;2024-03-08T10:28:40;4.80;;;2.80;;
69369;SDS011;56530;42.640;23.372;2024-03-08T10:31:33;3.65;;;2.92;;
69369;SDS011;56530;42.640;23.372;2024-03-08T10:33:59;2.88;;;2.40;;
69369;SDS011;56530;42.640;23.372;2024-03-08T10:36:24;4.13;;;3.20;;
69369;SDS011;56530;42.640;23.372;2024-03-08T10:38:51;4.95;;;2.70;;
69369;SDS011;56530;42.640;23.372;2024-03-08T10:41:22;2.70;;;2.50;;
69369;SDS011;56530;42.640;23.372;2024-03-08T10:47:31;2.85;;;2.55;;
69369;SDS011;56530;42.640;23.372;2024-03-08T10:52:43;2.63;;;2.42;;
69369;SDS011;56530;42.640;23.372;2024-03-08T10:55:17;5.88;;;4.20;;
69369;SDS011;56530;42.640;23.372;2024-03-08T10:57:47;3.45;;;2.90;;
69369;SDS011;56530;42.640;23.372;2024-03-08T11:00:20;4.22;;;2.80;;
69369;SDS011;56530;42.640;23.372;2024-03-08T11:03:00;3.33;;;2.50;;
69369;SDS011;56530;42.640;23.372;2024-03-08T11:06:17;3.67;;;3.38;;
69369;SDS011;56530;42.640;23.372;2024-03-08T11:08:52;3.30;;;2.40;;
69369;SDS011;56530;42.640;23.372;2024-03-08T11:15:00;4.75;;;2.20;;
69369;SDS011;56530;42.640;23.372;2024-03-08T11:17:40;3.10;;;2.38;;
69369;SDS011;56530;42.640;23.372;2024-03-08T11:20:26;2.88;;;2.67;;
69369;SDS011;56530;42.640;23.372;2024-03-08T11:23:49;2.00;;;1.90;;
69369;SDS011;56530;42.640;23.372;2024-03-08T11:26:01;3.20;;;2.53;;
69369;SDS011;56530;42.640;23.372;2024-03-08T11:28:32;3.20;;;2.75;;
69369;SDS011;56530;42.640;23.372;2024-03-08T11:33:56;4.45;;;2.28;;
69369;SDS011;56530;42.640;23.372;2024-03-08T11:36:24;2.42;;;2.25;;
69369;SDS011;56530;42.640;23.372;2024-03-08T11:38:54;9.88;;;2.42;;
69369;SDS011;56530;42.640;23.372;2024-03-08T11:41:28;2.47;;;2.35;;
69369;SDS011;56530;42.640;23.372;2024-03-08T11:44:24;2.45;;;2.25;;
69369;SDS011;56530;42.640;23.372;2024-03-08T11:50:38;2.10;;;1.90;;
69369;SDS011;56530;42.640;23.372;2024-03-08T11:53:06;3.30;;;2.97;;
69369;SDS011;56530;42.640;23.372;2024-03-08T11:55:46;2.85;;;2.30;;
69369;SDS011;56530;42.640;23.372;2024-03-08T11:58:17;2.03;;;1.92;;
69369;SDS011;56530;42.640;23.372;2024-03-08T12:00:44;1.90;;;1.80;;
69369;SDS011;56530;42.640;23.372;2024-03-08T12:03:11;2.20;;;2.10;;
69369;SDS011;56530;42.640;23.372;2024-03-08T12:05:37;1.80;;;1.70;;
69369;SDS011;56530;42.640;23.372;2024-03-08T12:08:03;2.17;;;2.08;;
69369;SDS011;56530;42.640;23.372;2024-03-08T12:10:30;3.38;;;2.17;;
69369;SDS011;56530;42.640;23.372;2024-03-08T12:12:57;2.38;;;2.20;;
69369;SDS011;56530;42.640;23.372;2024-03-08T12:15:28;2.28;;;2.08;;
69369;SDS011;56530;42.640;23.372;2024-03-08T12:17:59;2.67;;;2.05;;
69369;SDS011;56530;42.640;23.372;2024-03-08T12:20:38;2.40;;;2.17;;
69369;SDS011;56530;42.640;23.372;2024-03-08T12:23:26;2.65;;;1.90;;
69369;SDS011;56530;42.640;23.372;2024-03-08T12:25:53;2.75;;;1.90;;
69369;SDS011;56530;42.640;23.372;2024-03-08T12:28:32;1.90;;;1.80;;
69369;SDS011;56530;42.640;23.372;2024-03-08T12:31:01;2.55;;;2.33;;
69369;SDS011;56530;42.640;23.372;2024-03-08T12:33:37;3.97;;;2.50;;
69369;SDS011;56530;42.640;23.372;2024-03-08T12:36:28;2.55;;;2.08;;
69369;SDS011;56530;42.640;23.372;2024-03-08T12:39:05;2.60;;;2.40;;
69369;SDS011;56530;42.640;23.372;2024-03-08T12:41:39;2.42;;;2.20;;
69369;SDS011;56530;42.640;23.372;2024-03-08T12:44:06;2.35;;;2.17;;
69369;SDS011;56530;42.640;23.372;2024-03-08T12:46:36;2.42;;;2.22;;
69369;SDS011;56530;42.640;23.372;2024-03-08T12:49:07;3.05;;;2.53;;
69369;SDS011;56530;42.640;23.372;2024-03-08T12:51:37;2.55;;;2.35;;
69369;SDS011;56530;42.640;23.372;2024-03-08T12:54:10;4.35;;;2.80;;
69369;SDS011;56530;42.640;23.372;2024-03-08T12:56:48;3.67;;;2.47;;
69369;SDS011;56530;42.640;23.372;2024-03-08T13:00:04;2.30;;;2.10;;
69369;SDS011;56530;42.640;23.372;2024-03-08T13:02:37;2.75;;;2.30;;
69369;SDS011;56530;42.640;23.372;2024-03-08T13:05:08;1.98;;;1.88;;
69369;SDS011;56530;42.640;23.372;2024-03-08T13:07:45;2.85;;;2.50;;
69369;SDS011;56530;42.640;23.372;2024-03-08T13:10:22;3.15;;;2.30;;
69369;SDS011;56530;42.640;23.372;2024-03-08T13:13:15;2.20;;;2.00;;
69369;SDS011;56530;42.640;23.372;2024-03-08T13:16:00;4.07;;;2.55;;
69369;SDS011;56530;42.640;23.372;2024-03-08T13:18:35;3.30;;;2.65;;
69369;SDS011;56530;42.640;23.372;2024-03-08T13:21:14;7.43;;;2.50;;
69369;SDS011;56530;42.640;23.372;2024-03-08T13:23:49;3.83;;;2.28;;
69369;SDS011;56530;42.640;23.372;2024-03-08T13:26:26;2.22;;;2.13;;
69369;SDS011;56530;42.640;23.372;2024-03-08T13:28:57;3.25;;;1.98;;
69369;SDS011;56530;42.640;23.372;2024-03-08T13:31:24;3.13;;;2.28;;
69369;SDS011;56530;42.640;23.372;2024-03-08T13:33:50;2.05;;;1.90;;
69369;SDS011;56530;42.640;23.372;2024-03-08T13:36:22;1.90;;;1.80;;
69369;SDS011;56530;42.640;23.372;2024-03-08T13:38:54;2.80;;;2.42;;
69369;SDS011;56530;42.640;23.372;2024-03-08T13:41:21;2.38;;;2.17;;
69369;SDS011;56530;42.640;23.372;2024-03-08T13:43:53;2.40;;;2.20;;
69369;SDS011;56530;42.640;23.372;2024-03-08T13:46:18;1.95;;;1.85;;
69369;SDS011;56530;42.640;23.372;2024-03-08T13:48:51;2.13;;;1.83;;
69369;SDS011;56530;42.640;23.372;2024-03-08T13:51:19;2.70;;;2.50;;
69369;SDS011;56530;42.640;23.372;2024-03-08T13:54:29;3.10;;;2.80;;
69369;SDS011;56530;42.640;23.372;2024-03-08T13:56:57;2.33;;;2.22;;
69369;SDS011;56530;42.640;23.372;2024-03-08T13:59:23;2.55;;;2.22;;
69369;SDS011;56530;42.640;23.372;2024-03-08T14:01:51;4.28;;;3.88;;
69369;SDS011;56530;42.640;23.372;2024-03-08T14:04:17;3.35;;;2.75;;
69369;SDS011;56530;42.640;23.372;2024-03-08T14:06:48;3.25;;;2.95;;
69369;SDS011;56530;42.640;23.372;2024-03-08T14:09:15;3.33;;;3.03;;
69369;SDS011;56530;42.640;23.372;2024-03-08T14:11:44;2.60;;;2.15;;
69369;SDS011;56530;42.640;23.372;2024-03-08T14:14:12;5.50;;;2.75;;
69369;SDS011;56530;42.640;23.372;2024-03-08T14:17:04;2.60;;;2.40;;
69369;SDS011;56530;42.640;23.372;2024-03-08T14:19:34;2.55;;;2.35;;
69369;SDS011;56530;42.640;23.372;2024-03-08T14:22:00;2.33;;;1.92;;
69369;SDS011;56530;42.640;23.372;2024-03-08T14:24:29;2.60;;;2.40;;
69369;SDS011;56530;42.640;23.372;2024-03-08T14:26:56;3.63;;;2.70;;
69369;SDS011;56530;42.640;23.372;2024-03-08T14:29:24;2.08;;;1.98;;
69369;SDS011;56530;42.640;23.372;2024-03-08T14:31:57;2.90;;;2.55;;
69369;SDS011;56530;42.640;23.372;2024-03-08T14:34:28;3.60;;;2.78;;
69369;SDS011;56530;42.640;23.372;2024-03-08T14:36:58;2.95;;;2.40;;
69369;SDS011;56530;42.640;23.372;2024-03-08T14:39:24;4.65;;;2.67;;
69369;SDS011;56530;42.640;23.372;2024-03-08T14:41:54;2.95;;;2.75;;
69369;SDS011;56530;42.640;23.372;2024-03-08T14:44:29;2.83;;;2.63;;
69369;SDS011;56530;42.640;23.372;2024-03-08T14:47:06;4.43;;;3.13;;
69369;SDS011;56530;42.640;23.372;2024-03-08T14:49:48;2.85;;;2.65;;
69369;SDS011;56530;42.640;23.372;2024-03-08T14:52:16;3.60;;;3.30;;
69369;SDS011;56530;42.640;23.372;2024-03-08T14:54:54;6.63;;;3.58;;
69369;SDS011;56530;42.640;23.372;2024-03-08T14:57:38;3.33;;;3.08;;
69369;SDS011;56530;42.640;23.372;2024-03-08T15:00:06;3.50;;;3.20;;
69369;SDS011;56530;42.640;23.372;2024-03-08T15:02:41;2.85;;;2.63;;
69369;SDS011;56530;42.640;23.372;2024-03-08T15:05:07;5.10;;;3.10;;
69369;SDS011;56530;42.640;23.372;2024-03-08T15:07:39;5.50;;;3.30;;
69369;SDS011;56530;42.640;23.372;2024-03-08T15:10:09;3.03;;;2.83;;
69369;SDS011;56530;42.640;23.372;2024-03-08T15:12:45;3.63;;;3.30;;
69369;SDS011;56530;42.640;23.372;2024-03-08T15:15:12;5.05;;;3.47;;
69369;SDS011;56530;42.640;23.372;2024-03-08T15:17:42;5.28;;;3.60;;
69369;SDS011;56530;42.640;23.372;2024-03-08T15:20:09;4.30;;;3.90;;
69369;SDS011;56530;42.640;23.372;2024-03-08T15:22:49;4.15;;;3.72;;
69369;SDS011;56530;42.640;23.372;2024-03-08T15:25:16;5.90;;;3.95;;
69369;SDS011;56530;42.640;23.372;2024-03-08T15:27:58;4.85;;;3.88;;
69369;SDS011;56530;42.640;23.372;2024-03-08T15:31:25;6.40;;;4.03;;
69369;SDS011;56530;42.640;23.372;2024-03-08T15:33:54;5.07;;;3.83;;
69369;SDS011;56530;42.640;23.372;2024-03-08T15:36:26;5.25;;;4.40;;
69369;SDS011;56530;42.640;23.372;2024-03-08T15:38:56;4.78;;;4.25;;
69369;SDS011;56530;42.640;23.372;2024-03-08T15:41:29;6.57;;;4.50;;
69369;SDS011;56530;42.640;23.372;2024-03-08T15:46:53;5.90;;;4.80;;
69369;SDS011;56530;42.640;23.372;2024-03-08T15:59:44;6.15;;;3.60;;
69369;SDS011;56530;42.640;23.372;2024-03-08T16:02:10;5.75;;;3.47;;
69369;SDS011;56530;42.640;23.372;2024-03-08T16:04:38;4.28;;;3.80;;
69369;SDS011;56530;42.640;23.372;2024-03-08T16:07:04;4.55;;;3.88;;
69369;SDS011;56530;42.640;23.372;2024-03-08T16:09:31;4.50;;;4.10;;
69369;SDS011;56530;42.640;23.372;2024-03-08T16:12:01;4.53;;;3.70;;
69369;SDS011;56530;42.640;23.372;2024-03-08T16:14:30;4.30;;;3.90;;
69369;SDS011;56530;42.640;23.372;2024-03-08T16:16:59;6.82;;;4.05;;
69369;SDS011;56530;42.640;23.372;2024-03-08T16:19:27;4.40;;;4.00;;
69369;SDS011;56530;42.640;23.372;2024-03-08T16:22:33;14.85;;;11.65;;
69369;SDS011;56530;42.640;23.372;2024-03-08T16:25:08;4.30;;;3.92;;
69369;SDS011;56530;42.640;23.372;2024-03-08T16:28:09;4.82;;;4.35;;
69369;SDS011;56530;42.640;23.372;2024-03-08T16:30:39;6.60;;;4.60;;
69369;SDS011;56530;42.640;23.372;2024-03-08T16:33:17;7.88;;;5.03;;
69369;SDS011;56530;42.640;23.372;2024-03-08T16:35:51;11.02;;;9.35;;
69369;SDS011;56530;42.640;23.372;2024-03-08T16:38:31;12.82;;;9.82;;
69369;SDS011;56530;42.640;23.372;2024-03-08T16:41:35;8.38;;;5.38;;
69369;SDS011;56530;42.640;23.372;2024-03-08T16:44:08;8.27;;;4.90;;
69369;SDS011;56530;42.640;23.372;2024-03-08T16:46:39;5.85;;;4.95;;
69369;SDS011;56530;42.640;23.372;2024-03-08T16:49:18;8.35;;;5.53;;
69369;SDS011;56530;42.640;23.372;2024-03-08T16:51:46;10.57;;;6.80;;
69369;SDS011;56530;42.640;23.372;2024-03-08T16:54:12;8.13;;;6.38;;
69369;SDS011;56530;42.640;23.372;2024-03-08T16:56:43;10.68;;;7.32;;
69369;SDS011;56530;42.640;23.372;2024-03-08T16:59:10;9.00;;;6.38;;
69369;SDS011;56530;42.640;23.372;2024-03-08T17:09:25;9.23;;;6.00;;